Terminal Aerodrome Forecast
Issued by NWS Cleveland, OH

Home | Current Version | Previous Version | Graphics & Text | Print | Product List | Glossary On
Versions: 1 2 3 4 5 6 7 8 9 10 11 12 13 14 15 16 17 18 19 20
000
FTUS41 KCLE 012300
TAFCAK
TAF
KCAK 012329Z 0200/0224 26005KT 1SM -SN BR BKN003 OVC012
      TEMPO 0200/0202 3SM -SN BR SCT003 OVC012
     FM020200 28006KT 3SM BR SCT006 OVC012
      TEMPO 0204/0208 6SM BKN006 OVC012
     FM020800 29008KT 6SM BR OVC018
     FM021200 28008KT P6SM OVC025
     FM021800 28008KT P6SM SCT025 OVC045=

USA.gov is the U.S. government's official web portal to all federal, state and local government web resources and services.